createdAt,value
2022-11-29T00:01:23.546Z,4.70
2022-11-29T00:03:51.607Z,4.60
2022-11-29T00:06:20.872Z,4.60
2022-11-29T00:08:49.310Z,4.60
2022-11-29T00:11:40.564Z,4.60
2022-11-29T00:14:09.432Z,4.60
2022-11-29T00:16:38.018Z,4.60
2022-11-29T00:19:06.071Z,4.60
2022-11-29T00:21:34.208Z,4.50
2022-11-29T00:24:02.282Z,4.50
2022-11-29T00:26:31.998Z,4.50
2022-11-29T00:29:00.003Z,4.50
2022-11-29T00:31:30.345Z,4.50
2022-11-29T00:33:59.774Z,4.50
2022-11-29T00:36:27.867Z,4.50
2022-11-29T00:38:55.925Z,4.50
2022-11-29T00:41:25.775Z,4.50
2022-11-29T00:43:55.532Z,4.50
2022-11-29T00:46:23.916Z,4.50
2022-11-29T00:48:52.025Z,4.50
2022-11-29T00:51:19.960Z,4.50
2022-11-29T00:53:48.276Z,4.60
2022-11-29T00:56:16.254Z,4.50
2022-11-29T00:58:48.615Z,4.50
2022-11-29T01:01:19.681Z,4.50
2022-11-29T01:03:47.765Z,4.50
2022-11-29T01:06:17.172Z,4.40
2022-11-29T01:08:47.880Z,4.40
2022-11-29T01:11:17.070Z,4.40
2022-11-29T01:13:46.146Z,4.40
2022-11-29T01:16:15.345Z,4.30
2022-11-29T01:18:45.331Z,4.30
2022-11-29T01:21:14.626Z,4.30
2022-11-29T01:23:43.151Z,4.40
2022-11-29T01:26:12.839Z,4.30
2022-11-29T01:28:41.414Z,4.30
2022-11-29T01:31:09.597Z,4.20
2022-11-29T01:33:38.661Z,4.30
2022-11-29T01:36:09.414Z,4.30
2022-11-29T01:38:37.949Z,4.20
2022-11-29T01:41:07.080Z,4.30
2022-11-29T01:43:35.376Z,4.30
2022-11-29T01:46:04.082Z,4.20
2022-11-29T01:48:33.545Z,4.20
2022-11-29T01:51:03.031Z,4.20
2022-11-29T01:53:32.649Z,4.20
2022-11-29T01:56:02.489Z,4.20
2022-11-29T01:58:31.097Z,4.20
2022-11-29T02:00:59.386Z,4.10
2022-11-29T02:03:27.346Z,4.10
2022-11-29T02:05:56.169Z,4.10
2022-11-29T02:08:27.383Z,4.10
2022-11-29T02:11:05.713Z,4.10
2022-11-29T02:13:37.866Z,4.10
2022-11-29T02:16:08.117Z,4.10
2022-11-29T02:18:42.238Z,4.10
2022-11-29T02:21:24.241Z,4.10
2022-11-29T02:24:17.866Z,4.10
2022-11-29T02:27:03.670Z,4.10
2022-11-29T02:29:53.476Z,4.00
2022-11-29T02:32:36.348Z,4.10
2022-11-29T02:35:12.120Z,4.00
2022-11-29T02:37:50.479Z,4.10
2022-11-29T02:40:26.109Z,4.10
2022-11-29T02:43:05.271Z,4.10
2022-11-29T02:45:48.356Z,4.10
2022-11-29T02:48:27.802Z,4.10
2022-11-29T02:50:59.090Z,4.00
2022-11-29T02:53:30.918Z,4.10
2022-11-29T02:56:05.988Z,4.10
2022-11-29T02:58:37.099Z,4.10
2022-11-29T03:01:10.003Z,4.10
2022-11-29T03:03:42.163Z,4.10
2022-11-29T03:06:16.174Z,4.10
2022-11-29T03:08:47.520Z,4.10
2022-11-29T03:11:22.326Z,4.10
2022-11-29T03:13:53.678Z,4.10
2022-11-29T03:16:29.601Z,4.10
2022-11-29T03:19:05.475Z,4.10
2022-11-29T03:21:41.679Z,4.10
2022-11-29T03:24:15.966Z,4.10
2022-11-29T03:26:46.709Z,4.10
2022-11-29T03:29:19.540Z,4.10
2022-11-29T03:31:50.467Z,4.00
2022-11-29T03:34:21.777Z,4.00
2022-11-29T03:36:53.514Z,4.00
2022-11-29T03:39:25.970Z,4.10
2022-11-29T03:41:56.324Z,4.10
2022-11-29T03:44:26.624Z,4.10
2022-11-29T03:46:57.692Z,4.00
2022-11-29T03:49:32.218Z,4.10
2022-11-29T03:52:02.287Z,4.10
2022-11-29T03:54:33.961Z,4.10
2022-11-29T03:57:02.579Z,4.00
2022-11-29T03:59:40.602Z,4.00
2022-11-29T04:02:26.348Z,4.00
2022-11-29T04:05:04.778Z,4.00
2022-11-29T04:07:37.958Z,4.00
2022-11-29T04:10:18.844Z,3.90
2022-11-29T04:13:04.783Z,4.00
2022-11-29T04:15:46.811Z,3.90
2022-11-29T04:18:29.746Z,3.90
2022-11-29T04:21:30.675Z,3.90
2022-11-29T04:24:04.755Z,3.90
2022-11-29T04:26:53.843Z,3.80
2022-11-29T04:29:25.458Z,3.80
2022-11-29T04:32:04.769Z,3.80
2022-11-29T04:34:39.911Z,3.70
2022-11-29T04:37:24.553Z,3.80
2022-11-29T04:40:07.503Z,3.80
2022-11-29T04:42:48.699Z,3.70
2022-11-29T04:45:31.748Z,3.70
2022-11-29T04:48:04.196Z,3.80
2022-11-29T04:50:43.455Z,3.80
2022-11-29T04:53:24.802Z,3.70
2022-11-29T04:55:58.257Z,3.70
2022-11-29T04:58:29.693Z,3.70
2022-11-29T05:01:01.006Z,3.70
2022-11-29T05:03:36.510Z,3.70
2022-11-29T05:06:09.629Z,3.70
2022-11-29T05:08:46.477Z,3.60
2022-11-29T05:11:22.030Z,3.70
2022-11-29T05:13:56.357Z,3.60
2022-11-29T05:16:34.348Z,3.60
2022-11-29T05:19:35.593Z,3.60
2022-11-29T05:22:08.488Z,3.60
2022-11-29T05:24:42.896Z,3.60
2022-11-29T05:27:17.650Z,3.70
2022-11-29T05:29:50.811Z,3.60
2022-11-29T05:32:32.644Z,3.60
2022-11-29T05:35:09.265Z,3.60
2022-11-29T05:37:43.904Z,3.60
2022-11-29T05:40:41.395Z,3.60
2022-11-29T05:43:24.372Z,3.60
2022-11-29T05:45:56.069Z,3.60
2022-11-29T05:48:27.458Z,3.60
2022-11-29T05:51:06.594Z,3.60
2022-11-29T05:53:36.759Z,3.60
2022-11-29T05:56:10.596Z,3.60
2022-11-29T05:58:43.363Z,3.70
2022-11-29T06:01:17.039Z,3.70
2022-11-29T06:03:51.388Z,3.60
2022-11-29T06:06:23.730Z,3.60
2022-11-29T06:08:54.766Z,3.60
2022-11-29T06:11:25.669Z,3.60
2022-11-29T06:14:01.543Z,3.60
2022-11-29T06:16:43.905Z,3.60
2022-11-29T06:19:27.202Z,3.60
2022-11-29T06:22:00.115Z,3.60
2022-11-29T06:24:36.164Z,3.60
2022-11-29T06:27:19.108Z,3.60
2022-11-29T06:29:54.203Z,3.60
2022-11-29T06:32:25.628Z,3.60
2022-11-29T06:34:56.092Z,3.60
2022-11-29T06:37:26.960Z,3.60
2022-11-29T06:39:55.394Z,3.60
2022-11-29T06:42:23.613Z,3.60
2022-11-29T06:44:53.513Z,3.50
2022-11-29T06:47:29.024Z,3.60
2022-11-29T06:49:59.155Z,3.60
2022-11-29T06:52:32.006Z,3.60
2022-11-29T06:55:14.235Z,3.60
2022-11-29T06:57:50.112Z,3.60
2022-11-29T07:00:21.477Z,3.70
2022-11-29T07:02:55.565Z,3.60
2022-11-29T07:05:27.591Z,3.70
2022-11-29T07:07:57.327Z,3.70
2022-11-29T07:10:26.079Z,3.60
2022-11-29T07:12:54.787Z,3.60
2022-11-29T07:15:24.992Z,3.70
2022-11-29T07:18:07.821Z,3.70
2022-11-29T07:20:40.180Z,3.70
2022-11-29T07:23:13.348Z,3.60
2022-11-29T07:25:45.636Z,3.60
2022-11-29T07:28:20.733Z,3.70
2022-11-29T07:30:54.347Z,3.80
2022-11-29T07:33:29.168Z,3.70
2022-11-29T07:36:00.634Z,3.70
2022-11-29T07:38:33.157Z,3.80
2022-11-29T07:41:05.966Z,3.80
2022-11-29T07:43:40.006Z,3.90
2022-11-29T07:46:09.404Z,3.90
2022-11-29T07:48:37.230Z,3.90
2022-11-29T07:51:05.742Z,3.90
2022-11-29T07:53:35.409Z,3.90
2022-11-29T07:56:03.885Z,4.00
2022-11-29T07:58:31.904Z,4.00
2022-11-29T08:01:00.141Z,4.00
2022-11-29T08:03:29.771Z,4.00
2022-11-29T08:05:57.789Z,4.00
2022-11-29T08:08:25.830Z,4.10
2022-11-29T08:10:54.015Z,4.20
2022-11-29T08:13:22.229Z,4.20
2022-11-29T08:15:50.344Z,4.30
2022-11-29T08:18:18.190Z,4.40
2022-11-29T08:20:47.459Z,4.40
2022-11-29T08:23:17.368Z,4.40
2022-11-29T08:25:45.852Z,4.50
2022-11-29T08:28:13.788Z,4.50
2022-11-29T08:30:41.679Z,4.50
2022-11-29T08:33:09.619Z,4.60
2022-11-29T08:35:37.587Z,4.60
2022-11-29T08:38:07.091Z,4.60
2022-11-29T08:40:35.186Z,4.60
2022-11-29T08:43:03.131Z,4.70
2022-11-29T08:45:31.138Z,4.70
2022-11-29T08:47:59.479Z,4.80
2022-11-29T08:50:27.777Z,4.80
2022-11-29T08:53:13.246Z,4.90
2022-11-29T08:55:43.210Z,4.90
2022-11-29T08:58:12.070Z,4.90
2022-11-29T09:00:40.546Z,4.90
2022-11-29T09:03:26.850Z,5.00
2022-11-29T09:05:55.117Z,5.10
2022-11-29T09:08:23.052Z,5.20
2022-11-29T09:10:53.257Z,5.20
2022-11-29T09:13:21.305Z,5.20
2022-11-29T09:15:49.211Z,5.20
2022-11-29T09:18:17.182Z,5.20
2022-11-29T09:20:45.539Z,5.20
2022-11-29T09:23:14.042Z,5.10
2022-11-29T09:25:41.863Z,5.10
2022-11-29T09:28:12.603Z,5.30
2022-11-29T09:30:43.034Z,5.40
2022-11-29T09:33:11.197Z,5.40
2022-11-29T09:35:39.086Z,5.30
2022-11-29T09:38:07.019Z,5.20
2022-11-29T09:40:38.701Z,5.20
2022-11-29T09:43:09.322Z,5.20
2022-11-29T09:45:42.836Z,5.30
2022-11-29T09:48:24.422Z,5.20
2022-11-29T09:50:55.272Z,5.30
2022-11-29T09:53:29.711Z,5.40
2022-11-29T09:56:05.710Z,5.30
2022-11-29T09:58:38.218Z,5.30
2022-11-29T10:01:09.064Z,5.40
2022-11-29T10:03:39.439Z,5.50
2022-11-29T10:06:09.542Z,5.60
2022-11-29T10:08:39.297Z,5.60
2022-11-29T10:11:14.106Z,5.70
2022-11-29T10:13:45.799Z,5.80
2022-11-29T10:16:19.726Z,5.80
2022-11-29T10:18:50.677Z,5.80
2022-11-29T10:21:21.517Z,5.80
2022-11-29T10:23:51.659Z,5.80
2022-11-29T10:26:21.074Z,5.50
2022-11-29T10:28:49.649Z,5.60
2022-11-29T10:31:23.255Z,5.80
2022-11-29T10:33:51.866Z,5.70
2022-11-29T10:36:23.724Z,5.80
2022-11-29T10:38:52.063Z,6.00
2022-11-29T10:41:21.686Z,6.00
2022-11-29T10:43:50.742Z,6.10
2022-11-29T10:46:26.438Z,6.00
2022-11-29T10:48:59.438Z,6.00
2022-11-29T10:51:35.054Z,6.00
2022-11-29T10:54:12.993Z,6.00
2022-11-29T10:56:41.508Z,6.00
2022-11-29T10:59:20.224Z,6.10
2022-11-29T11:01:49.646Z,6.10
2022-11-29T11:04:25.874Z,6.20
2022-11-29T11:06:56.384Z,5.90
2022-11-29T11:09:29.575Z,5.90
2022-11-29T11:11:59.935Z,5.70
2022-11-29T11:14:30.287Z,5.70
2022-11-29T11:17:15.753Z,5.80
2022-11-29T11:19:43.954Z,5.70
2022-11-29T11:22:21.902Z,5.80
2022-11-29T11:24:56.710Z,5.70
2022-11-29T11:27:29.663Z,5.60
2022-11-29T11:29:57.697Z,5.60
2022-11-29T11:32:27.073Z,5.60
2022-11-29T11:34:55.740Z,5.60
2022-11-29T11:37:24.965Z,5.60
2022-11-29T11:39:54.187Z,5.50
2022-11-29T11:42:39.678Z,5.50
2022-11-29T11:45:23.285Z,5.60
2022-11-29T11:47:53.326Z,5.50
2022-11-29T11:50:27.667Z,5.60
2022-11-29T11:52:57.899Z,5.60
2022-11-29T11:55:30.557Z,5.60
2022-11-29T11:58:02.265Z,5.80
2022-11-29T12:03:36.888Z,5.70
2022-11-29T12:06:13.114Z,5.60
2022-11-29T12:08:41.170Z,5.50
2022-11-29T12:11:11.998Z,5.60
2022-11-29T12:13:42.316Z,5.60
2022-11-29T12:16:15.348Z,5.50
2022-11-29T12:18:48.675Z,5.50
2022-11-29T12:21:17.953Z,5.50
2022-11-29T12:23:49.230Z,5.50
2022-11-29T12:26:41.232Z,5.50
2022-11-29T12:29:11.209Z,5.60
2022-11-29T12:31:45.311Z,5.60
2022-11-29T12:34:23.021Z,5.70
2022-11-29T12:36:56.262Z,5.70
2022-11-29T12:39:33.528Z,5.70
2022-11-29T12:42:04.945Z,5.80
2022-11-29T12:44:40.328Z,5.70
2022-11-29T12:50:05.046Z,5.70
2022-11-29T12:52:38.125Z,5.70
2022-11-29T12:55:11.291Z,5.70
2022-11-29T12:57:41.168Z,5.60
2022-11-29T13:00:10.843Z,5.50
2022-11-29T13:02:43.718Z,5.50
2022-11-29T13:05:18.959Z,5.60
2022-11-29T13:07:52.850Z,5.60
2022-11-29T13:10:26.776Z,5.50
2022-11-29T13:12:56.687Z,5.50
2022-11-29T13:15:26.310Z,5.40
2022-11-29T13:17:57.969Z,5.40
2022-11-29T13:20:41.025Z,5.40
2022-11-29T13:23:14.682Z,5.30
2022-11-29T13:25:44.088Z,5.30
2022-11-29T13:28:17.009Z,5.20
2022-11-29T13:30:45.233Z,5.20
2022-11-29T13:33:17.534Z,5.20
2022-11-29T13:35:50.265Z,5.20
2022-11-29T13:38:24.944Z,5.10
2022-11-29T13:40:55.868Z,5.10
2022-11-29T13:43:30.662Z,5.20
2022-11-29T13:46:02.868Z,5.10
2022-11-29T13:48:36.191Z,5.10
2022-11-29T13:51:19.085Z,5.10
2022-11-29T13:53:49.412Z,5.00
2022-11-29T13:56:26.248Z,5.00
2022-11-29T13:58:54.837Z,4.90
2022-11-29T14:01:26.668Z,4.90
2022-11-29T14:04:05.720Z,4.90
2022-11-29T14:06:34.694Z,4.90
2022-11-29T14:09:21.313Z,4.80
2022-11-29T14:11:52.572Z,4.80
2022-11-29T14:14:23.813Z,4.70
2022-11-29T14:16:53.510Z,4.70
2022-11-29T14:19:23.919Z,4.70
2022-11-29T14:22:10.624Z,4.70
2022-11-29T14:24:41.926Z,4.60
2022-11-29T14:27:28.766Z,4.60
2022-11-29T14:29:58.708Z,4.60
2022-11-29T14:32:32.086Z,4.60
2022-11-29T14:35:02.617Z,4.50
2022-11-29T14:37:41.697Z,4.50
2022-11-29T14:40:19.261Z,4.50
2022-11-29T14:42:48.832Z,4.40
2022-11-29T14:45:26.105Z,4.40
2022-11-29T14:47:54.503Z,4.40
2022-11-29T14:50:30.924Z,4.40
2022-11-29T14:52:59.315Z,4.40
2022-11-29T14:55:32.533Z,4.40
2022-11-29T14:58:15.193Z,4.40
2022-11-29T15:00:58.424Z,4.50
2022-11-29T15:03:30.823Z,4.40
2022-11-29T15:06:00.526Z,4.40
2022-11-29T15:08:33.469Z,4.30
2022-11-29T15:11:04.059Z,4.30
2022-11-29T15:13:33.343Z,4.30
2022-11-29T15:16:11.827Z,4.30
2022-11-29T15:18:59.296Z,4.30
2022-11-29T15:21:32.995Z,4.30
2022-11-29T15:24:04.233Z,4.30
2022-11-29T15:26:32.624Z,4.20
2022-11-29T15:29:14.035Z,4.20
2022-11-29T15:31:42.672Z,4.20
2022-11-29T15:34:19.846Z,4.20
2022-11-29T15:36:49.460Z,4.20
2022-11-29T15:39:27.663Z,4.20
2022-11-29T15:42:00.526Z,4.20
2022-11-29T15:44:28.460Z,4.30
2022-11-29T15:46:56.480Z,4.30
2022-11-29T15:49:25.058Z,4.20
2022-11-29T15:51:56.282Z,4.20
2022-11-29T15:54:27.930Z,4.20
2022-11-29T15:56:59.510Z,4.20
2022-11-29T15:59:35.775Z,4.20
2022-11-29T16:02:07.665Z,4.20
2022-11-29T16:04:43.538Z,4.20
2022-11-29T16:07:16.143Z,4.20
2022-11-29T16:09:45.573Z,4.20
2022-11-29T16:12:14.614Z,4.20
2022-11-29T16:14:49.914Z,4.20
2022-11-29T16:17:19.435Z,4.20
2022-11-29T16:19:47.947Z,4.20
2022-11-29T16:22:18.601Z,4.10
2022-11-29T16:24:48.997Z,4.20
2022-11-29T16:27:17.078Z,4.20
2022-11-29T16:29:45.698Z,4.20
2022-11-29T16:32:15.176Z,4.20
2022-11-29T16:34:44.211Z,4.20
2022-11-29T16:37:17.930Z,4.10
2022-11-29T16:39:47.094Z,4.10
2022-11-29T16:42:20.633Z,4.20
2022-11-29T16:44:55.785Z,4.20
2022-11-29T16:47:24.579Z,4.10
2022-11-29T16:50:08.630Z,4.20
2022-11-29T16:52:38.843Z,4.20
2022-11-29T16:55:07.056Z,4.10
2022-11-29T16:57:35.190Z,4.10
2022-11-29T17:00:03.539Z,4.10
2022-11-29T17:02:31.915Z,4.10
2022-11-29T17:05:01.561Z,4.10
2022-11-29T17:07:30.447Z,4.10
2022-11-29T17:10:00.954Z,4.10
2022-11-29T17:12:28.957Z,4.10
2022-11-29T17:14:56.943Z,4.10
2022-11-29T17:17:25.156Z,4.10
2022-11-29T17:19:53.162Z,4.10
2022-11-29T17:22:21.468Z,4.10
2022-11-29T17:24:49.888Z,4.10
2022-11-29T17:27:19.819Z,4.20
2022-11-29T17:29:47.899Z,4.10
2022-11-29T17:32:15.989Z,4.10
2022-11-29T17:34:44.695Z,4.10
2022-11-29T17:37:12.912Z,4.20
2022-11-29T17:39:44.797Z,4.10
2022-11-29T17:42:16.356Z,4.10
2022-11-29T17:44:45.952Z,4.10
2022-11-29T17:47:39.386Z,4.10
2022-11-29T17:50:07.999Z,4.10
2022-11-29T17:52:36.259Z,4.10
2022-11-29T17:55:04.319Z,4.10
2022-11-29T17:57:33.501Z,4.10
2022-11-29T18:00:09.070Z,4.10
2022-11-29T18:02:37.180Z,4.20
2022-11-29T18:05:05.379Z,4.30
2022-11-29T18:07:33.500Z,4.30
2022-11-29T18:10:01.490Z,4.30
2022-11-29T18:12:29.628Z,4.30
2022-11-29T18:14:57.336Z,4.40
2022-11-29T18:17:26.548Z,4.30
2022-11-29T18:19:54.368Z,4.30
2022-11-29T18:22:22.255Z,4.40
2022-11-29T18:24:50.007Z,4.30
2022-11-29T18:27:17.870Z,4.30
2022-11-29T18:29:45.802Z,4.30
2022-11-29T18:32:13.782Z,4.30
2022-11-29T18:34:42.977Z,4.30
2022-11-29T18:37:16.028Z,4.30
2022-11-29T18:39:46.343Z,4.30
2022-11-29T18:42:14.506Z,4.30
2022-11-29T18:44:42.454Z,4.30
2022-11-29T18:47:10.530Z,4.30
2022-11-29T18:49:38.604Z,4.30
2022-11-29T18:52:07.909Z,4.30
2022-11-29T18:54:35.679Z,4.30
2022-11-29T18:57:03.579Z,4.30
2022-11-29T18:59:31.750Z,4.30
2022-11-29T19:01:59.519Z,4.30
2022-11-29T19:04:27.709Z,4.30
2022-11-29T19:06:55.495Z,4.30
2022-11-29T19:09:24.953Z,4.30
2022-11-29T19:11:52.938Z,4.30
2022-11-29T19:14:21.120Z,4.20
2022-11-29T19:16:49.865Z,4.20
2022-11-29T19:19:19.036Z,4.20
2022-11-29T19:21:47.177Z,4.20
2022-11-29T19:24:18.120Z,4.20
2022-11-29T19:26:48.137Z,4.20
2022-11-29T19:29:17.060Z,4.20
2022-11-29T19:31:45.127Z,4.10
2022-11-29T19:34:12.925Z,4.10
2022-11-29T19:36:43.420Z,4.10
2022-11-29T19:39:12.775Z,4.10
2022-11-29T19:41:40.775Z,4.10
2022-11-29T19:44:09.998Z,4.00
2022-11-29T19:46:38.720Z,4.00
2022-11-29T19:49:07.427Z,4.00
2022-11-29T19:51:35.621Z,4.00
2022-11-29T19:54:04.631Z,4.00
2022-11-29T19:56:32.792Z,3.90
2022-11-29T19:59:00.885Z,3.90
2022-11-29T20:01:39.355Z,3.90
2022-11-29T20:04:08.727Z,3.90
2022-11-29T20:06:36.588Z,3.80
2022-11-29T20:09:04.752Z,3.70
2022-11-29T20:11:32.723Z,3.70
2022-11-29T20:14:01.323Z,3.60
2022-11-29T20:16:30.777Z,3.50
2022-11-29T20:18:58.958Z,3.50
2022-11-29T20:21:27.720Z,3.40
2022-11-29T20:23:56.293Z,3.40
2022-11-29T20:26:24.700Z,3.40
2022-11-29T20:28:52.709Z,3.40
2022-11-29T20:31:22.612Z,3.40
2022-11-29T20:33:52.595Z,3.50
2022-11-29T20:36:43.361Z,3.50
2022-11-29T20:39:29.371Z,3.50
2022-11-29T20:42:07.080Z,3.50
2022-11-29T20:44:56.564Z,3.50
2022-11-29T20:47:25.124Z,3.50
2022-11-29T20:49:54.978Z,3.50
2022-11-29T20:52:29.491Z,3.50
2022-11-29T20:54:57.266Z,3.50
2022-11-29T20:57:26.235Z,3.60
2022-11-29T20:59:54.075Z,3.60
2022-11-29T21:02:22.482Z,3.60
2022-11-29T21:04:50.549Z,3.50
2022-11-29T21:07:19.879Z,3.60
2022-11-29T21:09:47.696Z,3.60
2022-11-29T21:12:16.509Z,3.60
2022-11-29T21:14:45.467Z,3.50
2022-11-29T21:17:13.785Z,3.50
2022-11-29T21:19:42.216Z,3.50
2022-11-29T21:22:13.879Z,3.50
2022-11-29T21:24:49.139Z,3.50
2022-11-29T21:27:19.448Z,3.40
2022-11-29T21:29:47.419Z,3.40
2022-11-29T21:32:21.350Z,3.40
2022-11-29T21:34:49.247Z,3.40
2022-11-29T21:37:17.703Z,3.40
2022-11-29T21:39:48.006Z,3.70
2022-11-29T21:42:15.747Z,7.50
2022-11-29T21:44:43.621Z,10.10
2022-11-29T21:47:11.546Z,11.80
2022-11-29T21:49:39.365Z,13.00
2022-11-29T21:52:07.166Z,13.90
2022-11-29T21:54:34.924Z,14.40
2022-11-29T21:57:04.048Z,14.70
2022-11-29T21:59:31.838Z,15.10
2022-11-29T22:01:59.847Z,15.60
2022-11-29T22:04:27.700Z,16.20
2022-11-29T22:06:55.452Z,16.60
2022-11-29T22:09:23.258Z,17.00
2022-11-29T22:11:50.973Z,17.30
2022-11-29T22:14:20.216Z,17.60
2022-11-29T22:16:48.706Z,17.80
2022-11-29T22:19:17.509Z,18.00
2022-11-29T22:21:45.943Z,18.20
2022-11-29T22:24:14.813Z,18.30
2022-11-29T22:26:43.591Z,18.40
2022-11-29T22:29:11.818Z,18.60
2022-11-29T22:31:41.495Z,18.70
2022-11-29T22:34:09.460Z,18.80
2022-11-29T22:36:37.544Z,18.90
2022-11-29T22:39:05.739Z,19.00
2022-11-29T22:41:33.488Z,19.10
2022-11-29T22:44:01.208Z,19.10
2022-11-29T22:46:29.399Z,19.20
2022-11-29T22:49:00.486Z,19.20
2022-11-29T22:51:29.149Z,19.20
2022-11-29T22:53:58.193Z,19.20
2022-11-29T22:56:26.849Z,19.20
2022-11-29T22:58:54.601Z,19.20
2022-11-29T23:01:23.069Z,19.20
2022-11-29T23:03:51.724Z,19.20
2022-11-29T23:06:21.451Z,19.20
2022-11-29T23:08:49.973Z,19.20
2022-11-29T23:11:18.854Z,19.10
2022-11-29T23:13:46.682Z,19.10
2022-11-29T23:16:15.655Z,19.10
2022-11-29T23:18:45.496Z,19.10
2022-11-29T23:21:14.409Z,19.10
2022-11-29T23:23:43.866Z,19.10
2022-11-29T23:26:17.729Z,19.10
2022-11-29T23:28:45.445Z,19.10
2022-11-29T23:31:13.336Z,19.10
2022-11-29T23:33:41.189Z,19.00
2022-11-29T23:36:09.741Z,19.00
2022-11-29T23:38:37.610Z,19.00
2022-11-29T23:41:07.161Z,19.00
2022-11-29T23:43:36.371Z,19.00
2022-11-29T23:46:06.508Z,19.00
2022-11-29T23:48:34.365Z,19.00
2022-11-29T23:51:02.273Z,19.00
2022-11-29T23:53:30.080Z,19.00
2022-11-29T23:55:58.535Z,19.00
2022-11-29T23:58:28.024Z,18.90
